Time;durP1;ratioP1;P1;durP2;ratioP2;P2;SDS_P1;SDS_P2;PMS_P1;PMS_P2;Temp;Humidity;BMP_temperature;BMP_pressure;BME280_temperature;BME280_humidity;BME280_pressure;Samples;Min_cycle;Max_cycle;Signal;HPM_P1;HPM_P2
2023/05/26 00:00:34;;;;;;;10.07;6.27;;;15.50;71.80;;;;;;5014967;28;20205;-75
2023/05/26 00:03:02;;;;;;;14.43;5.83;;;15.30;71.80;;;;;;5009897;28;20499;-75
2023/05/26 00:05:28;;;;;;;12.57;6.27;;;15.30;72.00;;;;;;5009817;28;20482;-75
2023/05/26 00:07:54;;;;;;;12.90;6.20;;;15.30;72.00;;;;;;5007238;28;20456;-75
2023/05/26 00:10:20;;;;;;;12.67;5.23;;;15.20;72.00;;;;;;5008396;28;20408;-76
2023/05/26 00:12:45;;;;;;;11.60;6.97;;;15.20;72.00;;;;;;5007905;28;20193;-76
2023/05/26 00:15:11;;;;;;;11.70;6.13;;;15.30;72.00;;;;;;5007999;28;20464;-76
2023/05/26 00:17:37;;;;;;;11.27;5.47;;;15.30;71.80;;;;;;5005499;28;20716;-75
2023/05/26 00:20:07;;;;;;;10.93;6.43;;;15.30;71.70;;;;;;5007234;28;20185;-75
2023/05/26 00:22:34;;;;;;;12.50;5.90;;;15.20;71.80;;;;;;5010490;28;20182;-75
2023/05/26 00:25:00;;;;;;;12.17;6.00;;;15.30;71.80;;;;;;5006914;28;20425;-76
2023/05/26 00:27:25;;;;;;;8.70;5.40;;;15.30;71.80;;;;;;5004934;28;20468;-75
2023/05/26 00:29:51;;;;;;;15.63;6.30;;;15.30;71.80;;;;;;5003167;28;20182;-76
2023/05/26 00:32:17;;;;;;;12.13;6.37;;;15.30;71.80;;;;;;5005786;28;20188;-76
2023/05/26 00:34:42;;;;;;;12.53;5.30;;;15.20;71.80;;;;;;5007919;28;20204;-75
2023/05/26 00:37:08;;;;;;;8.40;5.47;;;15.20;71.70;;;;;;5004145;28;20211;-74
2023/05/26 00:39:35;;;;;;;15.43;6.90;;;15.30;71.70;;;;;;5010377;28;20252;-74
2023/05/26 00:42:01;;;;;;;11.00;5.93;;;15.30;71.70;;;;;;5005791;28;20188;-76
2023/05/26 00:44:27;;;;;;;9.50;6.07;;;15.30;71.70;;;;;;5012991;28;20423;-76
2023/05/26 00:46:52;;;;;;;11.97;5.83;;;15.30;71.70;;;;;;5018195;28;20211;-73
2023/05/26 00:49:18;;;;;;;12.27;6.23;;;15.30;71.70;;;;;;5018444;28;20186;-76
2023/05/26 00:51:45;;;;;;;9.37;6.27;;;15.30;71.70;;;;;;5020105;28;20204;-75
2023/05/26 00:54:12;;;;;;;11.57;6.00;;;15.30;72.00;;;;;;5021356;28;20183;-76
2023/05/26 00:56:38;;;;;;;9.90;5.60;;;15.40;72.00;;;;;;5014107;28;20550;-74
2023/05/26 00:59:04;;;;;;;11.23;5.63;;;15.40;71.80;;;;;;5012755;28;21020;-74
2023/05/26 01:01:33;;;;;;;10.23;5.47;;;15.40;71.80;;;;;;5013060;28;20194;-73
2023/05/26 01:03:59;;;;;;;10.90;4.97;;;15.40;71.70;;;;;;5013882;28;20659;-75
2023/05/26 01:06:25;;;;;;;12.47;6.37;;;15.40;71.70;;;;;;5013178;28;20450;-75
2023/05/26 01:08:51;;;;;;;8.70;5.43;;;15.40;71.70;;;;;;5009471;28;20831;-74
2023/05/26 01:11:39;;;;;;;13.70;5.90;;;15.50;71.40;;;;;;5016614;28;20437;-76
2023/05/26 01:14:15;;;;;;;14.57;5.53;;;15.50;71.40;;;;;;5017551;28;20883;-75
2023/05/26 01:16:47;;;;;;;11.20;5.90;;;15.40;71.40;;;;;;5011955;28;20474;-76
2023/05/26 01:19:35;;;;;;;11.83;5.77;;;15.30;71.60;;;;;;5010232;28;20448;-76
2023/05/26 01:22:30;;;;;;;12.67;6.23;;;15.40;71.60;;;;;;5011451;28;20976;-75
2023/05/26 01:25:22;;;;;;;8.73;5.63;;;15.40;71.70;;;;;;5006921;28;20419;-76
2023/05/26 01:28:05;;;;;;;10.90;5.07;;;15.50;71.70;;;;;;5013387;28;20497;-75
2023/05/26 01:30:33;;;;;;;10.37;5.77;;;15.50;71.70;;;;;;5016299;28;20439;-76
2023/05/26 01:32:59;;;;;;;10.73;6.73;;;15.50;71.70;;;;;;5008549;28;20434;-75
2023/05/26 01:35:25;;;;;;;12.77;5.80;;;15.50;71.70;;;;;;5013501;28;20472;-76
2023/05/26 01:37:51;;;;;;;10.63;6.40;;;15.50;71.60;;;;;;5006245;28;20199;-75
2023/05/26 01:40:16;;;;;;;10.93;6.13;;;15.60;71.60;;;;;;5010508;28;20189;-76
2023/05/26 01:42:49;;;;;;;10.60;5.57;;;15.50;71.40;;;;;;5012580;28;20417;-74
2023/05/26 01:45:25;;;;;;;13.00;6.37;;;15.50;71.60;;;;;;5004145;28;20193;-76
2023/05/26 01:47:56;;;;;;;9.37;5.03;;;15.60;71.40;;;;;;5009800;28;20972;-75
2023/05/26 01:50:27;;;;;;;9.77;6.10;;;15.60;71.30;;;;;;5009100;28;20786;-77
2023/05/26 01:52:56;;;;;;;11.40;6.80;;;15.60;71.30;;;;;;5012718;28;20524;-76
2023/05/26 01:55:22;;;;;;;12.27;5.83;;;15.60;71.30;;;;;;5018482;28;20468;-74
2023/05/26 01:57:48;;;;;;;12.17;6.40;;;15.60;71.30;;;;;;5026252;28;20528;-76
2023/05/26 02:00:14;;;;;;;12.13;5.40;;;15.60;71.30;;;;;;5026622;28;20451;-75
2023/05/26 02:02:40;;;;;;;12.43;6.63;;;15.50;71.30;;;;;;5012874;28;20428;-76
2023/05/26 02:05:06;;;;;;;10.70;7.10;;;15.50;71.10;;;;;;5012003;28;20184;-74
2023/05/26 02:07:34;;;;;;;11.07;5.80;;;15.20;71.10;;;;;;5007001;28;20213;-76
2023/05/26 02:10:00;;;;;;;13.50;6.47;;;15.30;71.40;;;;;;5011754;28;20428;-74
2023/05/26 02:12:26;;;;;;;11.70;6.70;;;15.40;71.30;;;;;;5014025;28;20432;-78
2023/05/26 02:14:51;;;;;;;14.97;6.73;;;15.50;71.00;;;;;;5011749;28;20212;-77
2023/05/26 02:17:18;;;;;;;11.50;6.13;;;15.50;71.00;;;;;;5010437;28;20209;-76
2023/05/26 02:19:44;;;;;;;12.33;6.70;;;15.50;71.00;;;;;;5012639;28;20190;-75
2023/05/26 02:22:12;;;;;;;11.30;6.10;;;15.50;71.10;;;;;;5014103;28;20428;-76
2023/05/26 02:24:37;;;;;;;9.63;6.30;;;15.60;70.80;;;;;;5014276;28;20182;-76
2023/05/26 02:27:03;;;;;;;13.23;6.67;;;15.60;70.80;;;;;;5011568;28;20434;-74
2023/05/26 02:29:29;;;;;;;13.30;7.10;;;15.30;70.70;;;;;;5011961;28;20195;-76
2023/05/26 02:31:54;;;;;;;11.87;7.30;;;15.20;71.10;;;;;;5015222;28;20191;-77
2023/05/26 02:34:20;;;;;;;12.97;7.30;;;15.10;71.40;;;;;;5013432;28;20185;-75
2023/05/26 02:36:45;;;;;;;13.37;7.80;;;15.00;71.70;;;;;;5011818;28;20183;-76
2023/05/26 02:39:11;;;;;;;11.10;5.93;;;15.10;71.60;;;;;;5007915;28;20204;-76
2023/05/26 02:41:36;;;;;;;13.03;7.37;;;15.10;71.60;;;;;;5012297;28;20722;-77
2023/05/26 02:44:02;;;;;;;9.83;6.63;;;15.20;71.30;;;;;;5011125;28;20226;-75
2023/05/26 02:46:28;;;;;;;14.87;6.40;;;15.30;71.10;;;;;;5008632;28;20191;-76
2023/05/26 02:48:53;;;;;;;11.40;6.90;;;15.40;71.00;;;;;;5004326;28;20273;-75
2023/05/26 02:51:19;;;;;;;15.10;7.30;;;15.50;70.80;;;;;;5008040;28;20211;-75
2023/05/26 02:53:44;;;;;;;12.07;7.37;;;15.40;70.50;;;;;;5008004;28;20194;-76
2023/05/26 02:56:10;;;;;;;13.20;7.30;;;15.10;71.40;;;;;;5007482;28;20231;-77
2023/05/26 02:58:36;;;;;;;13.33;7.10;;;15.10;71.60;;;;;;5000884;28;20273;-76
2023/05/26 03:01:02;;;;;;;14.90;7.60;;;15.00;71.70;;;;;;5010886;28;20194;-75
2023/05/26 03:03:28;;;;;;;10.30;6.70;;;14.90;72.00;;;;;;5008209;28;20198;-75
2023/05/26 03:05:55;;;;;;;13.97;7.53;;;14.90;72.10;;;;;;5011160;28;20420;-76
2023/05/26 03:08:20;;;;;;;11.93;6.50;;;14.90;72.00;;;;;;5004080;28;20210;-75
2023/05/26 03:10:46;;;;;;;17.03;7.03;;;14.90;72.10;;;;;;5009491;28;20771;-74
2023/05/26 03:13:11;;;;;;;15.90;8.70;;;14.90;72.10;;;;;;5005177;28;20721;-75
2023/05/26 03:15:39;;;;;;;11.40;6.97;;;14.80;72.00;;;;;;5011087;28;20229;-75
2023/05/26 03:18:04;;;;;;;13.23;7.00;;;14.70;72.30;;;;;;5004690;28;20340;-75
2023/05/26 03:20:30;;;;;;;12.27;7.80;;;14.70;72.10;;;;;;5010162;28;20515;-73
2023/05/26 03:22:56;;;;;;;14.27;8.00;;;14.60;72.30;;;;;;5008573;28;20849;-77
2023/05/26 03:25:22;;;;;;;14.67;7.50;;;14.50;72.30;;;;;;5009355;28;20622;-76
2023/05/26 03:27:47;;;;;;;11.90;7.20;;;14.50;72.30;;;;;;5005899;28;20201;-74
2023/05/26 03:30:13;;;;;;;13.53;7.40;;;14.50;72.40;;;;;;5009453;28;20931;-75
2023/05/26 03:32:38;;;;;;;12.50;7.20;;;14.60;72.40;;;;;;5009315;28;20186;-75
2023/05/26 03:35:05;;;;;;;12.37;7.47;;;14.50;72.10;;;;;;5010599;28;20199;-74
2023/05/26 03:37:30;;;;;;;18.73;7.43;;;14.50;72.40;;;;;;5002957;28;20601;-74
2023/05/26 03:39:56;;;;;;;16.00;7.23;;;14.60;72.30;;;;;;5010261;28;20533;-74
2023/05/26 03:42:22;;;;;;;13.63;7.30;;;14.70;72.30;;;;;;5006514;28;20184;-75
2023/05/26 03:44:48;;;;;;;12.80;6.57;;;14.80;72.30;;;;;;5008428;28;21151;-75
2023/05/26 03:47:13;;;;;;;15.87;7.30;;;14.80;72.30;;;;;;5006802;28;20218;-73
2023/05/26 03:49:39;;;;;;;10.47;6.90;;;14.90;72.30;;;;;;5010057;28;20210;-74
2023/05/26 03:52:05;;;;;;;20.30;6.93;;;14.90;72.30;;;;;;5005494;28;20213;-73
2023/05/26 03:54:30;;;;;;;15.67;7.07;;;14.90;72.30;;;;;;5014022;28;20275;-75
2023/05/26 03:56:56;;;;;;;13.87;7.90;;;14.90;72.30;;;;;;5005869;28;20220;-74
2023/05/26 03:59:21;;;;;;;18.13;9.00;;;14.90;72.10;;;;;;5013354;28;20216;-74
2023/05/26 04:01:47;;;;;;;14.50;7.57;;;14.90;72.30;;;;;;5011270;28;20208;-75
2023/05/26 04:04:13;;;;;;;15.27;7.50;;;15.00;72.30;;;;;;5005821;28;20179;-75
2023/05/26 04:06:38;;;;;;;12.70;7.87;;;15.00;72.10;;;;;;5010370;28;20962;-75
2023/05/26 04:09:05;;;;;;;18.30;8.90;;;15.00;72.10;;;;;;5009898;28;20207;-74
2023/05/26 04:11:30;;;;;;;13.20;7.93;;;15.00;72.00;;;;;;5009431;28;20186;-75
2023/05/26 04:13:56;;;;;;;16.97;8.30;;;15.00;72.10;;;;;;5011369;28;20433;-76
2023/05/26 04:16:22;;;;;;;14.90;7.87;;;14.90;72.10;;;;;;5008790;28;20245;-76
2023/05/26 04:18:48;;;;;;;16.33;7.07;;;14.90;72.30;;;;;;5007631;28;21012;-76
2023/05/26 04:21:13;;;;;;;17.40;9.10;;;15.00;72.10;;;;;;5007987;28;20197;-75
2023/05/26 04:23:39;;;;;;;12.27;7.40;;;15.00;72.00;;;;;;5014155;28;20286;-76
2023/05/26 04:26:05;;;;;;;16.20;7.60;;;14.90;72.10;;;;;;5015989;28;20253;-75
2023/05/26 04:28:31;;;;;;;14.43;7.57;;;14.80;72.00;;;;;;5015160;28;20464;-75
2023/05/26 04:30:57;;;;;;;13.50;8.03;;;14.70;72.10;;;;;;5019589;28;20433;-76
2023/05/26 04:33:23;;;;;;;16.30;8.10;;;14.60;72.30;;;;;;5020805;28;20578;-76
2023/05/26 04:35:48;;;;;;;14.80;7.70;;;14.70;72.30;;;;;;5020308;28;20462;-74
2023/05/26 04:38:15;;;;;;;16.23;8.23;;;14.70;72.00;;;;;;5015581;28;21022;-75
2023/05/26 04:40:42;;;;;;;16.50;8.47;;;14.70;72.00;;;;;;5020179;28;20194;-74
2023/05/26 04:43:08;;;;;;;17.13;8.10;;;14.70;72.30;;;;;;5027347;28;21106;-77
2023/05/26 04:45:36;;;;;;;15.37;8.10;;;14.60;72.10;;;;;;5023974;28;20494;-76
2023/05/26 04:48:02;;;;;;;21.10;9.53;;;14.70;72.10;;;;;;5011310;28;20500;-76
2023/05/26 04:50:28;;;;;;;15.70;9.13;;;14.50;72.30;;;;;;5014093;28;20942;-74
2023/05/26 04:52:53;;;;;;;16.10;8.97;;;14.40;72.60;;;;;;5013768;28;20507;-74
2023/05/26 04:55:19;;;;;;;26.07;9.80;;;14.30;72.70;;;;;;5009484;28;20477;-74
2023/05/26 04:57:45;;;;;;;16.03;8.97;;;14.30;72.90;;;;;;5007876;28;20209;-74
2023/05/26 05:00:13;;;;;;;17.90;8.77;;;14.40;72.60;;;;;;5010096;28;20178;-75
2023/05/26 05:02:40;;;;;;;26.33;10.17;;;14.40;72.40;;;;;;5014158;28;20213;-75
2023/05/26 05:05:06;;;;;;;14.37;8.07;;;14.50;72.30;;;;;;5012809;28;20460;-74
2023/05/26 05:07:32;;;;;;;16.73;8.80;;;14.60;72.30;;;;;;5010752;28;20467;-72
2023/05/26 05:09:57;;;;;;;19.27;8.50;;;14.70;71.80;;;;;;5012371;28;20447;-75
2023/05/26 05:12:23;;;;;;;17.10;9.33;;;14.60;71.70;;;;;;5014887;28;20420;-72
2023/05/26 05:14:49;;;;;;;19.03;8.93;;;14.70;72.00;;;;;;5010477;28;20580;-72
2023/05/26 05:17:14;;;;;;;12.73;7.80;;;14.80;71.80;;;;;;5016798;28;20201;-73
2023/05/26 05:19:40;;;;;;;15.60;8.70;;;14.90;71.70;;;;;;5015889;28;20183;-75
2023/05/26 05:22:05;;;;;;;18.80;8.53;;;15.00;71.40;;;;;;5017030;28;20199;-74
2023/05/26 05:24:31;;;;;;;16.10;8.93;;;15.00;71.40;;;;;;5017328;28;20181;-73
2023/05/26 05:26:58;;;;;;;24.33;10.10;;;15.00;71.40;;;;;;5015504;28;20170;-73
2023/05/26 05:29:24;;;;;;;17.40;8.73;;;15.00;71.70;;;;;;5015298;28;20241;-76
2023/05/26 05:31:49;;;;;;;14.77;8.40;;;15.00;71.60;;;;;;5015208;28;20503;-74
2023/05/26 05:34:15;;;;;;;17.13;8.43;;;15.10;71.40;;;;;;5015062;28;20193;-75
2023/05/26 05:36:40;;;;;;;16.97;8.23;;;15.30;71.00;;;;;;5014547;28;20252;-73
2023/05/26 05:39:06;;;;;;;16.57;10.07;;;15.20;71.10;;;;;;5015132;28;20199;-74
2023/05/26 05:41:32;;;;;;;22.30;8.90;;;15.30;71.00;;;;;;5013738;28;20184;-75
2023/05/26 05:43:57;;;;;;;16.00;8.90;;;15.20;71.10;;;;;;5015318;28;20192;-75
2023/05/26 05:46:27;;;;;;;19.03;9.07;;;15.30;71.30;;;;;;5014999;28;20227;-74
2023/05/26 05:48:53;;;;;;;17.97;8.57;;;15.40;71.00;;;;;;5000251;28;20239;-74
2023/05/26 05:51:18;;;;;;;18.40;9.03;;;15.40;70.80;;;;;;5007543;28;20444;-74
2023/05/26 05:53:45;;;;;;;24.83;10.00;;;15.40;70.80;;;;;;5014937;28;20676;-73
2023/05/26 05:56:10;;;;;;;18.20;8.03;;;15.50;70.50;;;;;;5014853;28;20241;-74
2023/05/26 05:58:36;;;;;;;16.23;8.43;;;15.20;71.10;;;;;;5014347;28;20470;-74
2023/05/26 06:01:01;;;;;;;17.90;9.20;;;15.30;71.00;;;;;;5015344;28;20191;-74
2023/05/26 06:03:27;;;;;;;14.50;8.50;;;15.40;70.80;;;;;;5017116;28;20428;-76
2023/05/26 06:05:53;;;;;;;18.07;8.83;;;15.40;70.70;;;;;;5019581;28;20189;-76
2023/05/26 06:08:19;;;;;;;16.13;8.47;;;15.60;70.50;;;;;;5018515;28;20341;-74
2023/05/26 06:10:44;;;;;;;18.47;8.67;;;15.50;70.50;;;;;;5019067;28;20467;-76
2023/05/26 06:13:10;;;;;;;18.63;9.13;;;15.40;70.70;;;;;;5017999;28;20186;-75
2023/05/26 06:15:35;;;;;;;17.53;9.10;;;15.60;70.80;;;;;;5014565;28;20222;-73
2023/05/26 06:18:01;;;;;;;15.60;8.67;;;15.50;70.50;;;;;;5015102;28;20192;-74
2023/05/26 06:20:27;;;;;;;16.00;8.30;;;15.60;71.00;;;;;;5015362;28;20211;-74
2023/05/26 06:22:52;;;;;;;17.77;9.50;;;15.70;70.80;;;;;;5015637;28;20178;-74
2023/05/26 06:25:18;;;;;;;17.63;9.17;;;15.50;71.10;;;;;;5013640;28;20186;-76
2023/05/26 06:27:44;;;;;;;15.17;8.53;;;15.50;71.30;;;;;;5014684;28;20256;-74
2023/05/26 06:30:10;;;;;;;16.37;9.43;;;15.50;70.80;;;;;;5013436;28;20182;-73
2023/05/26 06:32:36;;;;;;;14.70;8.83;;;15.70;70.70;;;;;;5013969;28;20442;-74
2023/05/26 06:35:01;;;;;;;12.77;8.10;;;15.80;70.10;;;;;;5014079;28;20894;-74
2023/05/26 06:37:27;;;;;;;14.03;9.10;;;15.80;69.50;;;;;;5008046;28;20642;-73
2023/05/26 06:39:52;;;;;;;15.80;8.87;;;15.60;70.40;;;;;;5009052;28;20186;-73
2023/05/26 06:42:18;;;;;;;15.60;8.83;;;15.60;70.20;;;;;;5008878;28;20246;-74
2023/05/26 06:44:43;;;;;;;17.13;9.00;;;15.80;69.80;;;;;;5009365;28;20507;-73
2023/05/26 06:47:09;;;;;;;14.70;9.37;;;15.90;69.50;;;;;;5005725;28;20274;-74
2023/05/26 06:49:35;;;;;;;19.03;9.20;;;15.90;69.50;;;;;;5002667;28;20287;-74
2023/05/26 06:52:00;;;;;;;24.20;10.13;;;15.90;69.90;;;;;;5008077;28;21124;-74
2023/05/26 06:54:26;;;;;;;14.93;8.30;;;16.00;69.80;;;;;;5009668;28;20229;-72
2023/05/26 06:56:52;;;;;;;20.07;9.60;;;16.00;69.90;;;;;;5006656;28;20292;-73
2023/05/26 06:59:17;;;;;;;18.53;9.43;;;16.20;69.10;;;;;;5018251;28;20206;-73
2023/05/26 07:01:43;;;;;;;19.13;9.83;;;16.00;69.50;;;;;;5018868;28;20555;-74
2023/05/26 07:04:10;;;;;;;14.00;8.83;;;16.10;69.70;;;;;;5019749;28;20193;-74
2023/05/26 07:06:35;;;;;;;20.63;9.40;;;16.20;69.10;;;;;;5018820;28;20199;-74
2023/05/26 07:09:01;;;;;;;18.57;9.00;;;16.30;68.60;;;;;;5009397;28;20862;-73
2023/05/26 07:11:27;;;;;;;22.03;9.97;;;16.40;68.90;;;;;;5009328;28;20186;-73
2023/05/26 07:13:52;;;;;;;16.00;9.37;;;16.40;68.80;;;;;;5012090;28;20191;-74
2023/05/26 07:16:18;;;;;;;17.83;10.70;;;16.20;69.50;;;;;;5011328;28;20468;-73
2023/05/26 07:18:44;;;;;;;16.67;9.43;;;16.10;69.70;;;;;;5004541;28;20240;-74
2023/05/26 07:21:09;;;;;;;18.90;8.57;;;16.00;70.10;;;;;;5012349;28;20187;-73
2023/05/26 07:23:35;;;;;;;20.93;10.50;;;16.20;69.70;;;;;;5010997;28;20247;-73
2023/05/26 07:26:00;;;;;;;17.67;10.10;;;16.20;69.40;;;;;;5011929;28;20198;-74
2023/05/26 07:28:26;;;;;;;21.23;9.47;;;15.90;69.80;;;;;;5006743;28;20216;-73
2023/05/26 07:30:52;;;;;;;17.27;9.10;;;16.00;69.90;;;;;;5008814;28;20749;-74
2023/05/26 07:33:18;;;;;;;19.93;9.80;;;16.20;69.70;;;;;;5009592;28;20668;-72
2023/05/26 07:35:43;;;;;;;17.47;9.53;;;16.40;69.20;;;;;;5008402;28;20252;-74
2023/05/26 07:38:09;;;;;;;13.60;9.07;;;16.40;68.80;;;;;;5009030;28;20459;-74
2023/05/26 07:40:35;;;;;;;20.37;9.43;;;16.40;68.90;;;;;;5009721;28;20201;-73
2023/05/26 07:43:02;;;;;;;22.77;9.50;;;16.60;68.60;;;;;;5007685;28;20805;-73
2023/05/26 07:45:27;;;;;;;20.13;10.23;;;16.50;68.50;;;;;;5011415;28;20442;-73
2023/05/26 07:47:53;;;;;;;19.90;9.43;;;16.60;68.50;;;;;;5015074;28;20461;-73
2023/05/26 07:50:19;;;;;;;17.73;9.20;;;16.80;68.30;;;;;;5017174;28;20312;-73
2023/05/26 07:52:44;;;;;;;20.40;9.17;;;17.00;68.00;;;;;;5010174;28;20265;-74
2023/05/26 07:55:10;;;;;;;17.57;8.90;;;17.00;67.70;;;;;;5010454;28;20212;-74
2023/05/26 07:57:36;;;;;;;19.30;9.30;;;17.00;67.70;;;;;;5012908;28;20300;-74
2023/05/26 08:00:03;;;;;;;20.00;9.10;;;17.10;67.30;;;;;;5019642;28;20219;-74
2023/05/26 08:02:29;;;;;;;20.83;9.77;;;17.00;67.50;;;;;;5017398;28;20534;-72
2023/05/26 08:04:54;;;;;;;20.00;9.30;;;16.90;67.70;;;;;;5011521;28;20512;-73
2023/05/26 08:07:20;;;;;;;17.23;9.50;;;16.90;68.00;;;;;;5007211;28;20288;-73
2023/05/26 08:09:46;;;;;;;14.00;8.90;;;17.10;68.30;;;;;;5008020;28;20589;-75
2023/05/26 08:12:12;;;;;;;19.17;10.37;;;17.30;67.70;;;;;;5015348;28;20432;-74
2023/05/26 08:14:37;;;;;;;19.60;9.57;;;17.00;68.00;;;;;;5015817;28;20811;-73
2023/05/26 08:17:03;;;;;;;18.10;9.10;;;17.10;68.20;;;;;;5012118;28;20189;-73
2023/05/26 08:19:29;;;;;;;23.80;10.20;;;17.10;68.20;;;;;;5012456;28;20194;-73
2023/05/26 08:21:54;;;;;;;15.90;9.40;;;17.20;67.90;;;;;;5015932;28;20561;-73
2023/05/26 08:24:22;;;;;;;17.90;9.60;;;17.10;68.00;;;;;;5014666;28;20247;-75
2023/05/26 08:26:49;;;;;;;22.57;10.40;;;17.00;68.50;;;;;;5013908;28;20682;-73
2023/05/26 08:29:14;;;;;;;19.23;9.77;;;17.10;68.80;;;;;;5007795;28;20468;-74
2023/05/26 08:31:40;;;;;;;15.50;10.20;;;17.20;68.60;;;;;;5014971;28;20518;-75
2023/05/26 08:34:06;;;;;;;18.07;9.27;;;17.40;68.50;;;;;;5012614;28;20641;-74
2023/05/26 08:36:32;;;;;;;18.07;10.67;;;17.50;68.00;;;;;;5011030;28;20217;-73
2023/05/26 08:38:58;;;;;;;15.33;8.47;;;17.50;68.00;;;;;;5015496;28;20493;-75
2023/05/26 08:41:28;;;;;;;16.87;9.50;;;17.70;67.70;;;;;;5018894;28;20515;-74
2023/05/26 08:43:58;;;;;;;18.30;9.53;;;17.90;67.30;;;;;;5013620;28;20190;-74
2023/05/26 08:46:25;;;;;;;19.60;9.97;;;17.90;67.00;;;;;;5010721;28;20502;-73
2023/05/26 08:48:53;;;;;;;18.00;9.20;;;17.70;67.60;;;;;;5007898;28;20469;-74
2023/05/26 08:51:18;;;;;;;22.80;11.10;;;17.70;67.90;;;;;;5016839;28;20452;-73
2023/05/26 08:53:47;;;;;;;16.93;9.97;;;17.80;68.00;;;;;;5014829;28;20462;-73
2023/05/26 08:56:13;;;;;;;16.00;8.80;;;17.80;67.50;;;;;;5008708;28;20233;-72
2023/05/26 08:58:39;;;;;;;17.80;9.00;;;17.90;67.50;;;;;;5011647;28;20558;-75
2023/05/26 09:01:05;;;;;;;20.40;10.40;;;18.10;67.00;;;;;;5024670;28;20197;-73
2023/05/26 09:03:31;;;;;;;16.40;9.30;;;18.10;66.70;;;;;;5023116;28;20425;-73
2023/05/26 09:05:57;;;;;;;24.17;11.23;;;18.20;66.60;;;;;;5020996;28;20190;-74
2023/05/26 09:08:23;;;;;;;15.83;9.50;;;18.30;66.00;;;;;;5017876;28;20461;-76
2023/05/26 09:10:49;;;;;;;16.83;8.53;;;18.20;65.80;;;;;;5015682;28;20188;-73
2023/05/26 09:13:18;;;;;;;15.60;9.33;;;18.30;66.10;;;;;;5011049;28;20451;-73
2023/05/26 09:15:50;;;;;;;19.90;10.40;;;18.60;65.80;;;;;;5007796;28;20213;-75
2023/05/26 09:18:16;;;;;;;15.37;9.17;;;18.60;65.60;;;;;;5004904;28;20458;-72
2023/05/26 09:20:47;;;;;;;15.73;9.00;;;18.50;65.40;;;;;;5012453;28;20419;-72
2023/05/26 09:23:15;;;;;;;17.50;9.60;;;18.60;64.80;;;;;;5017743;28;20190;-74
2023/05/26 09:25:42;;;;;;;13.67;9.80;;;18.40;65.30;;;;;;5017476;28;20423;-74
2023/05/26 09:28:12;;;;;;;15.07;9.43;;;18.40;65.70;;;;;;5021254;28;20461;-73
2023/05/26 09:30:40;;;;;;;15.60;9.63;;;18.40;65.80;;;;;;5018122;28;20421;-73
2023/05/26 09:33:08;;;;;;;15.10;8.77;;;18.40;66.10;;;;;;5012577;28;20445;-74
2023/05/26 09:35:38;;;;;;;16.40;8.70;;;18.50;64.50;;;;;;5014030;28;20483;-73
2023/05/26 09:38:09;;;;;;;24.03;9.53;;;18.60;64.50;;;;;;5007448;28;20464;-76
2023/05/26 09:40:43;;;;;;;19.83;10.00;;;18.80;64.50;;;;;;5004195;28;20430;-73
2023/05/26 09:43:09;;;;;;;14.03;9.40;;;18.90;63.90;;;;;;5012092;28;20451;-74
2023/05/26 09:45:36;;;;;;;14.73;9.00;;;18.90;64.40;;;;;;5008485;28;20807;-75
2023/05/26 09:48:06;;;;;;;18.87;9.27;;;19.00;63.40;;;;;;5000662;28;20498;-75
2023/05/26 09:50:37;;;;;;;16.90;8.43;;;19.20;63.10;;;;;;5010999;28;20467;-76
2023/05/26 09:53:05;;;;;;;18.37;8.83;;;19.40;62.80;;;;;;5010686;28;20417;-74
2023/05/26 09:55:32;;;;;;;17.00;8.07;;;19.40;61.60;;;;;;5010639;28;20835;-73
2023/05/26 09:58:06;;;;;;;16.53;9.13;;;19.60;61.90;;;;;;5008180;28;20487;-75
2023/05/26 10:00:34;;;;;;;15.20;8.90;;;19.60;62.80;;;;;;5011846;28;20454;-76
2023/05/26 10:03:03;;;;;;;22.70;9.90;;;19.70;62.30;;;;;;5012925;28;20467;-72
2023/05/26 10:05:33;;;;;;;12.67;8.23;;;20.10;61.00;;;;;;5010670;28;20453;-75
2023/05/26 10:08:00;;;;;;;17.50;9.80;;;20.30;60.70;;;;;;5007124;28;20463;-76
2023/05/26 10:10:28;;;;;;;15.87;9.10;;;20.20;61.20;;;;;;5009677;28;20945;-72
2023/05/26 10:12:54;;;;;;;16.90;8.80;;;20.20;61.00;;;;;;5009201;28;20421;-74
2023/05/26 10:15:20;;;;;;;17.97;8.43;;;20.40;60.90;;;;;;5009104;28;20473;-74
2023/05/26 10:17:46;;;;;;;14.07;7.87;;;20.40;60.90;;;;;;5004614;28;20951;-75
2023/05/26 10:20:14;;;;;;;22.27;7.87;;;20.50;61.20;;;;;;5008578;28;20232;-76
2023/05/26 10:23:00;;;;;;;15.27;8.30;;;20.90;60.40;;;;;;5005241;28;20480;-74
2023/05/26 10:25:49;;;;;;;13.87;8.83;;;20.80;59.50;;;;;;5006719;28;20437;-75
2023/05/26 10:28:39;;;;;;;13.77;9.37;;;21.10;59.30;;;;;;4997270;28;20885;-72
2023/05/26 10:31:05;;;;;;;23.67;10.20;;;20.90;60.00;;;;;;5009820;28;20553;-74
2023/05/26 10:33:44;;;;;;;16.87;9.47;;;21.00;60.30;;;;;;5007433;28;20521;-74
2023/05/26 10:36:29;;;;;;;20.40;10.10;;;21.10;59.70;;;;;;5003540;28;20208;-72
2023/05/26 10:38:55;;;;;;;16.83;9.63;;;20.60;61.00;;;;;;5005664;28;20577;-74
2023/05/26 10:41:48;;;;;;;15.30;8.93;;;20.50;61.60;;;;;;5007985;28;20466;-74
2023/05/26 10:44:40;;;;;;;14.83;9.47;;;20.50;60.70;;;;;;5012021;28;20413;-74
2023/05/26 10:47:06;;;;;;;22.03;10.30;;;20.60;61.00;;;;;;5005787;28;20446;-75
2023/05/26 10:49:38;;;;;;;16.47;8.13;;;20.70;60.60;;;;;;5010181;28;20533;-74
2023/05/26 10:52:22;;;;;;;16.33;9.40;;;20.90;60.00;;;;;;5010766;28;20925;-75
2023/05/26 10:54:50;;;;;;;24.07;9.40;;;21.20;58.70;;;;;;5011835;28;20432;-74
2023/05/26 10:57:30;;;;;;;15.83;9.00;;;21.30;58.90;;;;;;5005318;28;20508;-73
2023/05/26 10:59:56;;;;;;;15.30;9.37;;;20.90;58.90;;;;;;5008569;28;20758;-74
2023/05/26 11:02:22;;;;;;;16.30;9.23;;;20.80;59.50;;;;;;5006208;28;20422;-75
2023/05/26 11:04:49;;;;;;;17.63;9.33;;;20.80;59.60;;;;;;5009845;28;20698;-74
2023/05/26 11:07:26;;;;;;;16.50;9.10;;;20.90;58.40;;;;;;5007552;28;20203;-74
2023/05/26 11:10:05;;;;;;;13.90;8.93;;;20.80;59.30;;;;;;5009745;28;20447;-74
2023/05/26 11:12:34;;;;;;;14.40;8.17;;;20.60;59.90;;;;;;5003783;28;20426;-73
2023/05/26 11:15:30;;;;;;;19.63;8.30;;;20.70;60.90;;;;;;5007382;28;20947;-73
2023/05/26 11:18:01;;;;;;;16.93;8.67;;;21.20;59.20;;;;;;5011394;28;20558;-73
2023/05/26 11:20:27;;;;;;;19.33;8.50;;;21.60;58.40;;;;;;5014550;28;20501;-74
2023/05/26 11:22:54;;;;;;;17.03;8.57;;;21.90;57.60;;;;;;5013410;28;20475;-75
2023/05/26 11:25:20;;;;;;;17.77;8.47;;;22.40;55.80;;;;;;5005202;28;20435;-74
2023/05/26 11:27:46;;;;;;;13.70;8.50;;;22.20;55.80;;;;;;5000026;28;20470;-72
2023/05/26 11:30:12;;;;;;;14.00;7.93;;;21.70;57.60;;;;;;5002928;28;20434;-73
2023/05/26 11:32:47;;;;;;;14.50;7.97;;;22.00;57.20;;;;;;5008229;28;20812;-73
2023/05/26 11:35:26;;;;;;;16.33;9.17;;;22.30;55.70;;;;;;5004914;28;20212;-72
2023/05/26 11:37:53;;;;;;;14.40;7.93;;;21.60;57.30;;;;;;5002337;28;20464;-74
2023/05/26 11:40:19;;;;;;;13.93;7.27;;;21.70;56.50;;;;;;5007025;28;20442;-75
2023/05/26 11:42:46;;;;;;;19.33;8.20;;;21.50;57.30;;;;;;5004622;28;20432;-74
2023/05/26 11:45:12;;;;;;;16.23;8.50;;;21.60;56.60;;;;;;5000693;28;20443;-73
2023/05/26 11:47:38;;;;;;;15.57;8.30;;;21.40;57.80;;;;;;5004764;28;20451;-73
2023/05/26 11:50:08;;;;;;;12.93;7.30;;;21.50;58.80;;;;;;5005940;28;20430;-75
2023/05/26 11:52:34;;;;;;;12.90;7.70;;;22.20;57.30;;;;;;5011200;28;20189;-74
2023/05/26 11:55:00;;;;;;;13.33;7.20;;;22.20;56.60;;;;;;5011127;28;20420;-74
2023/05/26 11:57:31;;;;;;;14.70;8.60;;;22.20;57.30;;;;;;5006434;28;20663;-76
2023/05/26 11:59:58;;;;;;;16.60;8.37;;;21.80;58.00;;;;;;5009273;28;20181;-73
2023/05/26 12:02:23;;;;;;;15.37;8.70;;;22.00;57.40;;;;;;5010626;28;20527;-74
2023/05/26 12:04:49;;;;;;;15.07;8.07;;;21.80;58.10;;;;;;5009683;28;20440;-75
2023/05/26 12:07:28;;;;;;;15.70;8.27;;;21.70;58.20;;;;;;5007140;28;20215;-72
2023/05/26 12:10:07;;;;;;;19.77;8.23;;;21.80;58.70;;;;;;5008666;28;20322;-73
2023/05/26 12:12:53;;;;;;;17.97;8.77;;;22.40;57.20;;;;;;5004230;28;20430;-72
2023/05/26 12:15:23;;;;;;;11.27;7.80;;;22.40;56.50;;;;;;5006073;28;21142;-73
2023/05/26 12:17:51;;;;;;;14.47;8.30;;;22.70;55.60;;;;;;5008659;28;21030;-72
2023/05/26 12:20:18;;;;;;;12.53;8.50;;;22.20;56.20;;;;;;5008918;28;20494;-75
2023/05/26 12:22:43;;;;;;;12.50;7.20;;;22.00;57.30;;;;;;5005171;28;20492;-72
2023/05/26 12:25:10;;;;;;;14.23;7.87;;;22.10;56.20;;;;;;5010907;28;20429;-74
2023/05/26 12:27:37;;;;;;;18.87;7.70;;;22.20;56.40;;;;;;5004847;28;20214;-73
2023/05/26 12:30:26;;;;;;;10.27;6.73;;;21.90;56.90;;;;;;5010615;28;20801;-74
2023/05/26 12:32:55;;;;;;;14.20;7.77;;;22.20;57.30;;;;;;5012300;28;20431;-73
2023/05/26 12:35:21;;;;;;;12.27;8.20;;;23.00;54.60;;;;;;5011341;28;20537;-74
2023/05/26 12:37:47;;;;;;;15.30;7.40;;;23.20;53.40;;;;;;5008995;28;21012;-73